Time;durP1;ratioP1;P1;durP2;ratioP2;P2;SDS_P1;SDS_P2;PMS_P1;PMS_P2;Temp;Humidity;BMP_temperature;BMP_pressure;BME280_temperature;BME280_humidity;BME280_pressure;Samples;Min_cycle;Max_cycle;Signal;HPM_P1;HPM_P2
2023/10/22 00:00:24;;;;;;;7.00;1.25;;;;;;;12.24;66.40;99176.13;10366279;28;20048;-61
2023/10/22 00:05:25;;;;;;;2.10;0.47;;;;;;;12.17;66.63;99169.94;10365457;28;20080;-61
2023/10/22 00:10:27;;;;;;;6.63;0.73;;;;;;;12.16;66.83;99172.84;10367271;28;20118;-61
2023/10/22 00:15:28;;;;;;;4.13;0.80;;;;;;;12.13;66.90;99184.88;10363456;28;20409;-61
2023/10/22 00:20:31;;;;;;;3.63;0.98;;;;;;;12.09;66.72;99189.06;10366110;28;20057;-61
2023/10/22 00:25:35;;;;;;;3.30;0.60;;;;;;;12.07;66.82;99189.25;10365760;28;20065;-62
2023/10/22 00:30:36;;;;;;;4.95;0.60;;;;;;;12.15;67.02;99187.38;10364621;28;20034;-62
2023/10/22 00:35:38;;;;;;;1.60;0.38;;;;;;;12.22;67.17;99197.06;10366216;28;20085;-61
2023/10/22 00:40:39;;;;;;;2.60;0.40;;;;;;;12.30;67.37;99199.50;10363846;28;20536;-61
2023/10/22 00:45:40;;;;;;;1.60;0.47;;;;;;;12.45;67.31;99199.22;10364590;28;20044;-62
2023/10/22 00:50:43;;;;;;;3.60;0.50;;;;;;;12.54;67.18;99193.56;10366273;28;20773;-61
2023/10/22 00:55:46;;;;;;;2.53;0.60;;;;;;;12.58;67.21;99186.69;10364985;28;20061;-61
2023/10/22 01:00:48;;;;;;;2.70;0.82;;;;;;;12.65;66.95;99184.78;10362438;28;20056;-61
2023/10/22 01:05:49;;;;;;;6.78;0.47;;;;;;;12.69;67.05;99186.81;10363696;28;20401;-61
2023/10/22 01:10:51;;;;;;;3.13;0.95;;;;;;;12.75;66.86;99187.81;10364851;28;20431;-61
2023/10/22 01:15:52;;;;;;;3.70;0.60;;;;;;;12.84;66.75;99197.28;10365614;28;20050;-62
2023/10/22 01:20:54;;;;;;;4.45;0.60;;;;;;;12.86;66.36;99187.09;10365759;28;20377;-61
2023/10/22 01:25:56;;;;;;;6.72;0.50;;;;;;;12.89;66.65;99192.06;10348620;28;20053;-61
2023/10/22 01:30:57;;;;;;;1.75;0.60;;;;;;;12.94;66.23;99188.72;10367290;28;20041;-62
2023/10/22 01:35:59;;;;;;;1.75;0.40;;;;;;;13.02;65.95;99185.72;10364866;28;20046;-61
2023/10/22 01:41:05;;;;;;;1.27;0.50;;;;;;;13.06;65.77;99186.13;10363337;28;20049;-62
2023/10/22 01:46:06;;;;;;;4.50;0.30;;;;;;;13.11;65.76;99191.66;10360074;28;20505;-61
2023/10/22 01:51:08;;;;;;;2.53;0.50;;;;;;;13.14;65.32;99187.72;10363803;28;20054;-63
2023/10/22 01:56:09;;;;;;;4.85;0.38;;;;;;;13.06;65.53;99196.91;10362016;28;20053;-61
2023/10/22 02:01:11;;;;;;;1.55;0.30;;;;;;;13.07;65.06;99196.69;10363330;28;20061;-61
2023/10/22 02:06:14;;;;;;;3.55;0.32;;;;;;;12.96;65.48;99194.72;10362665;28;20080;-61
2023/10/22 02:11:15;;;;;;;2.15;0.57;;;;;;;12.94;65.42;99199.50;10361818;28;20519;-62
2023/10/22 02:16:17;;;;;;;0.93;0.40;;;;;;;13.00;65.13;99206.72;10359373;28;20049;-62
2023/10/22 02:21:21;;;;;;;4.55;0.40;;;;;;;13.02;65.28;99217.28;10362010;28;20046;-62
2023/10/22 02:26:23;;;;;;;3.50;0.68;;;;;;;12.97;65.52;99212.53;10360876;28;20393;-62
2023/10/22 02:31:24;;;;;;;2.17;0.50;;;;;;;12.97;65.36;99214.41;10361556;28;20046;-62
2023/10/22 02:36:27;;;;;;;2.67;0.50;;;;;;;12.88;65.17;99211.97;10361608;28;20060;-61
2023/10/22 02:41:28;;;;;;;1.95;0.15;;;;;;;12.88;65.42;99221.97;10360361;28;20060;-62
2023/10/22 02:46:30;;;;;;;4.55;0.75;;;;;;;12.85;65.23;99225.91;10358926;28;20044;-61
2023/10/22 02:51:32;;;;;;;2.50;0.20;;;;;;;12.77;65.37;99233.44;10360606;28;20038;-62
2023/10/22 02:56:33;;;;;;;2.15;0.30;;;;;;;12.75;65.50;99240.91;10353382;28;20041;-61
2023/10/22 03:01:35;;;;;;;1.60;0.40;;;;;;;12.71;65.35;99254.00;10359985;28;20042;-61
2023/10/22 03:06:37;;;;;;;5.22;0.75;;;;;;;12.69;65.22;99262.31;10359213;28;20073;-61
2023/10/22 03:11:38;;;;;;;3.58;0.90;;;;;;;12.56;65.48;99261.56;10358615;28;20050;-62
2023/10/22 03:16:42;;;;;;;3.80;0.60;;;;;;;12.38;65.65;99260.44;10358559;28;20092;-61
2023/10/22 03:21:44;;;;;;;2.83;0.50;;;;;;;12.37;65.44;99269.53;10358076;28;20061;-61
2023/10/22 03:26:46;;;;;;;5.90;0.70;;;;;;;12.28;65.78;99262.72;10356856;28;20501;-62
2023/10/22 03:31:48;;;;;;;3.42;0.50;;;;;;;12.20;66.14;99277.25;10358954;28;20045;-61
2023/10/22 03:36:49;;;;;;;3.60;0.50;;;;;;;12.19;66.07;99272.13;10354533;28;20049;-62
2023/10/22 03:41:51;;;;;;;3.55;0.25;;;;;;;12.19;66.04;99275.63;10356776;28;20037;-62
2023/10/22 03:46:52;;;;;;;1.25;0.30;;;;;;;12.23;66.25;99281.41;10356525;28;20045;-61
2023/10/22 03:51:54;;;;;;;1.85;0.43;;;;;;;12.27;66.05;99288.03;10355631;28;20046;-61
2023/10/22 03:56:55;;;;;;;1.30;0.30;;;;;;;12.37;65.68;99293.78;10357918;28;20050;-62
2023/10/22 04:01:57;;;;;;;5.13;0.60;;;;;;;12.38;65.90;99295.47;10358882;28;20130;-61
2023/10/22 04:06:58;;;;;;;1.10;0.30;;;;;;;12.35;65.94;99303.13;10354596;28;20064;-62
2023/10/22 04:12:00;;;;;;;2.00;0.28;;;;;;;12.35;65.91;99306.66;10360435;28;20042;-61
2023/10/22 04:17:01;;;;;;;5.65;0.30;;;;;;;12.41;65.57;99305.78;10358046;28;20061;-61
2023/10/22 04:22:03;;;;;;;1.00;0.20;;;;;;;12.45;65.98;99311.59;10359897;28;20041;-61
2023/10/22 04:27:04;;;;;;;1.98;0.30;;;;;;;12.50;66.17;99311.78;10357320;28;20077;-61
2023/10/22 04:32:06;;;;;;;4.47;0.55;;;;;;;12.66;65.75;99327.47;10356453;28;20048;-62
2023/10/22 04:37:09;;;;;;;3.63;0.20;;;;;;;12.79;65.79;99325.72;10364302;28;20448;-65
2023/10/22 04:42:11;;;;;;;4.00;0.30;;;;;;;12.91;65.42;99326.69;10372389;28;20382;-62
2023/10/22 04:47:12;;;;;;;5.10;0.82;;;;;;;12.99;65.55;99333.72;10362234;28;20045;-62
2023/10/22 04:52:31;;;;;;;3.47;0.28;;;;;;;13.10;65.28;99335.72;10366502;28;20450;-62
2023/10/22 04:57:32;;;;;;;3.10;0.20;;;;;;;13.20;65.52;99340.63;10365016;28;21299;-61
2023/10/22 05:02:34;;;;;;;1.25;0.20;;;;;;;13.34;65.00;99355.72;10360841;28;20053;-62
2023/10/22 05:07:36;;;;;;;3.85;0.40;;;;;;;13.49;64.87;99350.00;10363026;28;20046;-62
2023/10/22 05:12:38;;;;;;;3.50;0.57;;;;;;;13.62;64.77;99371.50;10366354;28;20519;-68
2023/10/22 05:17:40;;;;;;;2.83;0.45;;;;;;;13.66;64.62;99370.03;10381378;28;20053;-63
2023/10/22 05:22:44;;;;;;;2.80;0.40;;;;;;;13.62;64.74;99373.38;10363197;28;20394;-63
2023/10/22 05:27:46;;;;;;;5.88;0.30;;;;;;;13.67;64.62;99373.56;10364336;28;20077;-62
2023/10/22 05:32:47;;;;;;;5.97;0.40;;;;;;;13.71;64.81;99374.75;10363701;28;20046;-62
2023/10/22 05:37:51;;;;;;;1.88;0.32;;;;;;;13.72;64.62;99376.41;10362215;28;20069;-62
2023/10/22 05:42:52;;;;;;;1.63;0.30;;;;;;;13.69;65.01;99384.97;10363196;28;20057;-62
2023/10/22 05:47:53;;;;;;;3.78;0.30;;;;;;;13.75;64.79;99389.47;10359986;28;20636;-62
2023/10/22 05:52:55;;;;;;;5.05;0.65;;;;;;;13.81;64.53;99403.97;10361573;28;20035;-62
2023/10/22 05:57:56;;;;;;;3.92;0.28;;;;;;;13.84;64.40;99406.22;10362799;28;20050;-65
2023/10/22 06:02:58;;;;;;;3.30;0.30;;;;;;;13.88;64.44;99410.13;10363128;28;20053;-64
2023/10/22 06:08:00;;;;;;;3.38;0.60;;;;;;;13.86;64.47;99423.88;10361428;28;20132;-64
2023/10/22 06:13:01;;;;;;;6.05;0.40;;;;;;;13.93;64.35;99418.41;10346427;28;20038;-70
2023/10/22 06:18:03;;;;;;;3.17;1.30;;;;;;;13.96;64.33;99428.78;10363671;28;20057;-70
2023/10/22 06:23:06;;;;;;;3.17;0.30;;;;;;;14.02;63.93;99433.31;10360874;28;20115;-70
2023/10/22 06:28:07;;;;;;;3.10;0.52;;;;;;;14.04;63.97;99438.47;10362122;28;20668;-70
2023/10/22 06:33:09;;;;;;;4.70;0.40;;;;;;;14.03;64.00;99448.47;10362145;28;20057;-70
2023/10/22 06:38:11;;;;;;;3.35;0.40;;;;;;;14.06;63.92;99453.44;10360584;28;20061;-68
2023/10/22 06:43:12;;;;;;;5.53;0.30;;;;;;;14.14;63.81;99459.59;10359758;28;20050;-69
2023/10/22 06:48:13;;;;;;;5.78;0.32;;;;;;;14.19;63.62;99479.50;10363016;28;20046;-71
2023/10/22 06:53:15;;;;;;;5.03;0.70;;;;;;;14.30;63.58;99486.09;10361181;28;20056;-66
2023/10/22 06:58:16;;;;;;;3.05;0.40;;;;;;;14.45;63.15;99486.56;10359395;28;20058;-69
2023/10/22 07:03:18;;;;;;;3.70;0.30;;;;;;;14.54;63.17;99488.97;10353310;28;20492;-67
2023/10/22 07:08:20;;;;;;;4.45;0.50;;;;;;;14.64;62.98;99484.72;10359302;28;20049;-70
2023/10/22 07:13:25;;;;;;;4.15;0.47;;;;;;;14.68;63.02;99491.34;10356688;28;20061;-70
2023/10/22 07:18:26;;;;;;;4.35;0.30;;;;;;;14.72;62.98;99494.44;10360186;28;20129;-67
2023/10/22 07:23:31;;;;;;;3.45;0.65;;;;;;;14.78;62.84;99495.41;10356796;28;20058;-70
2023/10/22 07:28:33;;;;;;;3.33;0.40;;;;;;;14.82;62.88;99505.56;10358616;28;20056;-67
2023/10/22 07:33:34;;;;;;;5.35;0.30;;;;;;;14.93;62.87;99501.28;10358284;28;20076;-70
2023/10/22 07:38:38;;;;;;;7.13;0.70;;;;;;;15.07;62.39;99512.78;10358457;28;20054;-69
2023/10/22 07:43:39;;;;;;;4.53;0.50;;;;;;;15.18;62.16;99514.72;10359789;28;20046;-70
2023/10/22 07:48:42;;;;;;;3.13;0.20;;;;;;;15.25;62.34;99517.38;10356418;28;20042;-70
2023/10/22 07:53:45;;;;;;;4.35;0.45;;;;;;;15.37;61.89;99522.84;10357391;28;20054;-70
2023/10/22 07:58:46;;;;;;;3.28;0.90;;;;;;;15.51;62.04;99528.91;10360870;28;20058;-69
2023/10/22 08:03:49;;;;;;;5.78;0.40;;;;;;;15.65;61.58;99544.75;10371867;28;20046;-70
2023/10/22 08:08:54;;;;;;;3.33;0.95;;;;;;;15.73;61.78;99540.09;10367903;28;20441;-70
2023/10/22 08:13:56;;;;;;;6.10;0.40;;;;;;;15.86;61.21;99548.06;10372597;28;20073;-70
2023/10/22 08:18:57;;;;;;;4.85;0.50;;;;;;;16.00;60.73;99549.50;10376791;28;20050;-68
2023/10/22 08:23:59;;;;;;;8.52;0.50;;;;;;;15.96;61.09;99550.22;10356080;28;20100;-69
2023/10/22 08:29:01;;;;;;;4.60;1.20;;;;;;;15.92;61.16;99568.81;10354981;28;20050;-68
2023/10/22 08:34:03;;;;;;;4.60;0.30;;;;;;;15.96;60.96;99580.03;10383909;28;20660;-64
2023/10/22 08:39:05;;;;;;;2.33;0.30;;;;;;;16.02;60.87;99587.25;10392124;28;20093;-64
2023/10/22 08:44:07;;;;;;;5.50;0.60;;;;;;;15.99;60.66;99595.81;10381184;28;20069;-64
2023/10/22 08:49:11;;;;;;;3.45;0.73;;;;;;;16.02;60.72;99603.50;10374498;28;20057;-64
2023/10/22 08:54:13;;;;;;;6.18;0.30;;;;;;;16.03;60.72;99603.28;10365977;28;20046;-63
2023/10/22 08:59:15;;;;;;;5.10;0.30;;;;;;;16.12;60.44;99606.47;10366480;28;20057;-63
2023/10/22 09:04:17;;;;;;;2.88;0.30;;;;;;;16.17;60.14;99612.06;10381016;28;20053;-65
2023/10/22 09:09:39;;;;;;;7.65;0.65;;;;;;;16.11;60.64;99618.38;10376143;28;20049;-66
2023/10/22 09:14:43;;;;;;;6.43;0.45;;;;;;;16.23;60.25;99615.69;10374421;28;20046;-65
2023/10/22 09:19:47;;;;;;;7.65;0.70;;;;;;;16.26;60.27;99616.06;10393954;28;20400;-65
2023/10/22 09:24:57;;;;;;;2.28;0.40;;;;;;;16.35;60.56;99623.88;10395876;28;20061;-65
2023/10/22 09:30:00;;;;;;;8.27;0.82;;;;;;;16.43;60.51;99632.53;10376671;28;20052;-65
2023/10/22 09:35:14;;;;;;;2.20;0.50;;;;;;;16.33;60.81;99632.25;10385180;28;20526;-66
2023/10/22 09:40:22;;;;;;;7.00;0.43;;;;;;;16.32;60.79;99625.16;10393077;28;20041;-66
2023/10/22 09:45:26;;;;;;;6.80;0.30;;;;;;;16.45;60.71;99624.97;10379451;28;20085;-68
2023/10/22 09:50:30;;;;;;;1.92;0.20;;;;;;;16.42;60.79;99619.19;10392111;28;20045;-66
2023/10/22 09:55:33;;;;;;;6.43;0.55;;;;;;;16.59;60.40;99624.78;10405807;28;20053;-65
2023/10/22 10:00:41;;;;;;;2.45;0.30;;;;;;;16.77;59.82;99632.00;10389072;28;20061;-66
2023/10/22 10:05:53;;;;;;;5.15;0.73;;;;;;;16.68;60.00;99631.50;10368994;23;20042;-83
2023/10/22 10:10:55;;;;;;;7.55;0.60;;;;;;;16.76;59.37;99630.31;10309572;28;20090;-84
2023/10/22 10:16:01;;;;;;;4.13;0.30;;;;;;;16.91;58.99;99640.75;10328646;28;20042;-80
2023/10/22 10:21:34;;;;;;;8.10;0.43;;;;;;;16.98;59.08;99657.75;10338494;28;20038;-83
2023/10/22 10:26:35;;;;;;;4.45;0.30;;;;;;;16.96;58.80;99649.88;10338367;28;20285;-83
2023/10/22 10:31:37;;;;;;;5.80;0.50;;;;;;;16.98;58.86;99657.75;10335450;28;20058;-82
2023/10/22 10:36:39;;;;;;;8.40;0.68;;;;;;;16.88;59.23;99649.38;10336111;28;20039;-82
2023/10/22 10:41:53;;;;;;;4.97;0.32;;;;;;;16.80;59.78;99656.75;10335621;28;20399;-82
2023/10/22 10:47:19;;;;;;;4.32;0.43;;;;;;;16.83;59.86;99663.66;10331569;28;20054;-85
2023/10/22 10:52:21;;;;;;;3.78;0.38;;;;;;;16.77;59.87;99665.38;10346585;28;20035;-84
2023/10/22 10:57:39;;;;;;;6.35;0.40;;;;;;;16.64;60.72;99669.13;10333694;28;20049;-84
2023/10/22 11:03:06;;;;;;;4.28;0.70;;;;;;;16.27;61.47;99676.56;10356582;28;20042;-83
2023/10/22 11:08:18;;;;;;;3.47;0.50;;;;;;;16.15;61.79;99665.69;10325915;28;20409;-83
2023/10/22 11:13:27;;;;;;;2.85;0.35;;;;;;;16.22;61.47;99673.72;10328135;28;20055;-81
2023/10/22 11:18:28;;;;;;;3.67;0.52;;;;;;;16.29;61.06;99674.47;10349799;28;20050;-82
2023/10/22 11:23:31;;;;;;;2.33;0.40;;;;;;;16.40;61.09;99670.94;10339420;28;20503;-82
2023/10/22 11:28:33;;;;;;;5.22;0.38;;;;;;;16.55;60.70;99667.00;10331842;28;20058;-82
2023/10/22 11:33:37;;;;;;;5.68;0.60;;;;;;;16.75;59.88;99672.94;10326808;28;20046;-82
2023/10/22 11:38:41;;;;;;;2.45;0.40;;;;;;;16.92;59.65;99675.81;10333212;28;20045;-82
2023/10/22 11:43:51;;;;;;;5.65;0.43;;;;;;;16.98;59.62;99676.75;10329298;28;20104;-83
2023/10/22 11:48:53;;;;;;;6.97;0.57;;;;;;;16.99;59.46;99673.81;10342444;28;20054;-81
2023/10/22 11:53:59;;;;;;;4.05;0.32;;;;;;;16.88;59.29;99681.94;10359286;28;20101;-79
2023/10/22 11:59:01;;;;;;;2.50;0.33;;;;;;;17.10;59.10;99676.75;10359531;28;20050;-82
2023/10/22 12:04:04;;;;;;;6.13;0.63;;;;;;;17.25;59.01;99672.50;10342437;28;20143;-81
2023/10/22 12:09:06;;;;;;;5.05;0.85;;;;;;;17.37;58.62;99679.84;10340163;28;20042;-80
2023/10/22 12:14:09;;;;;;;2.40;0.30;;;;;;;17.40;58.65;99682.09;10350824;28;20050;-81
2023/10/22 12:19:11;;;;;;;6.25;0.47;;;;;;;17.44;58.49;99686.81;10341464;28;20046;-80
2023/10/22 12:24:12;;;;;;;2.15;0.30;;;;;;;17.32;58.84;99687.88;10340982;28;20062;-79
2023/10/22 12:29:27;;;;;;;3.47;0.50;;;;;;;17.27;58.76;99702.16;10340602;28;20493;-81
2023/10/22 12:34:29;;;;;;;3.13;0.35;;;;;;;17.10;59.03;99702.06;10330267;28;20046;-81
2023/10/22 12:39:30;;;;;;;4.78;1.10;;;;;;;16.99;58.95;99703.69;10348723;28;21393;-80
2023/10/22 12:44:34;;;;;;;4.50;0.40;;;;;;;17.03;58.91;99707.59;10360007;28;20047;-78
2023/10/22 12:49:36;;;;;;;3.47;0.40;;;;;;;17.09;58.71;99710.44;10353538;28;20065;-78
2023/10/22 12:54:39;;;;;;;1.92;0.50;;;;;;;17.24;58.15;99714.34;10370539;28;20037;-78
2023/10/22 12:59:44;;;;;;;4.75;0.68;;;;;;;17.31;58.03;99716.94;10368149;28;20054;-79
2023/10/22 13:04:47;;;;;;;3.55;0.40;;;;;;;17.27;57.71;99713.03;10364476;28;20118;-78
2023/10/22 13:09:49;;;;;;;4.10;0.50;;;;;;;17.45;57.17;99725.66;10358862;28;20069;-79
2023/10/22 13:14:50;;;;;;;4.55;0.55;;;;;;;17.61;56.82;99741.28;10338679;28;20054;-78
2023/10/22 13:19:52;;;;;;;10.65;1.10;;;;;;;17.67;56.61;99739.47;10357773;28;20039;-78
2023/10/22 13:24:55;;;;;;;4.32;0.85;;;;;;;17.69;56.21;99747.41;10345867;28;20049;-80
2023/10/22 13:29:57;;;;;;;6.25;1.15;;;;;;;17.74;56.07;99756.50;10357437;28;20042;-78
2023/10/22 13:34:58;;;;;;;3.35;0.82;;;;;;;17.85;55.73;99749.41;10337186;28;20039;-78
2023/10/22 13:40:01;;;;;;;3.20;0.40;;;;;;;18.13;55.47;99750.56;10357885;28;20176;-79
2023/10/22 13:45:04;;;;;;;2.35;0.68;;;;;;;18.18;55.21;99756.09;10364730;28;20042;-78
2023/10/22 13:50:10;;;;;;;5.30;0.60;;;;;;;18.12;55.23;99757.06;10336183;28;20042;-79
2023/10/22 13:55:12;;;;;;;4.65;0.73;;;;;;;17.80;55.40;99769.13;10327109;28;20085;-77
2023/10/22 14:00:14;;;;;;;2.75;0.50;;;;;;;17.63;55.54;99768.19;10297160;28;20035;-78
2023/10/22 14:05:16;;;;;;;3.78;0.30;;;;;;;17.64;55.44;99773.41;10337221;28;20053;-78
2023/10/22 14:10:17;;;;;;;5.65;0.40;;;;;;;17.44;56.00;99778.38;10348357;28;20053;-78
2023/10/22 14:15:20;;;;;;;3.17;0.43;;;;;;;17.40;55.95;99780.72;10355376;28;20043;-78
2023/10/22 14:20:25;;;;;;;1.25;0.30;;;;;;;17.49;55.98;99780.38;10350292;28;20051;-78
2023/10/22 14:25:26;;;;;;;4.10;0.52;;;;;;;17.57;55.90;99783.56;10348144;28;20046;-78
2023/10/22 14:30:28;;;;;;;4.18;0.73;;;;;;;17.59;56.03;99789.59;10345920;28;20053;-78
2023/10/22 14:35:30;;;;;;;2.80;0.50;;;;;;;17.70;56.09;99796.09;10355849;28;20045;-78
2023/10/22 14:40:32;;;;;;;7.82;0.50;;;;;;;17.47;56.46;99786.03;10352204;28;20051;-79
2023/10/22 14:45:33;;;;;;;4.88;0.98;;;;;;;17.42;56.64;99781.31;10336461;28;20051;-78
2023/10/22 14:50:35;;;;;;;1.85;0.40;;;;;;;17.60;56.02;99793.16;10315742;28;20074;-80
2023/10/22 14:55:36;;;;;;;2.00;0.43;;;;;;;17.49;56.44;99792.06;10338249;28;20069;-83
2023/10/22 15:00:38;;;;;;;3.13;0.28;;;;;;;17.54;56.45;99808.50;10309318;28;20113;-78
2023/10/22 15:05:47;;;;;;;4.18;0.60;;;;;;;17.29;56.87;99799.72;10305108;28;20543;-78
2023/10/22 15:10:49;;;;;;;4.30;0.47;;;;;;;17.32;57.05;99791.09;10301756;28;20175;-85
2023/10/22 15:15:50;;;;;;;8.57;0.50;;;;;;;17.40;56.83;99801.66;10306466;28;20042;-79
2023/10/22 15:20:52;;;;;;;4.88;0.60;;;;;;;17.30;56.90;99795.94;10305744;28;20039;-77
2023/10/22 15:25:53;;;;;;;1.55;0.50;;;;;;;17.36;57.10;99803.19;10314333;28;20397;-78
2023/10/22 15:30:55;;;;;;;3.63;0.63;;;;;;;17.26;57.35;99811.91;10336663;28;20066;-79
2023/10/22 15:35:59;;;;;;;11.05;1.25;;;;;;;17.25;57.36;99811.06;10337182;28;20036;-80
2023/10/22 15:41:02;;;;;;;5.82;0.60;;;;;;;17.22;57.59;99814.25;10320348;28;20046;-81
2023/10/22 15:46:04;;;;;;;3.10;0.40;;;;;;;17.32;57.49;99820.97;10327669;28;20038;-85
2023/10/22 15:51:05;;;;;;;3.13;0.40;;;;;;;17.25;57.63;99824.63;10316664;28;20073;-80
2023/10/22 15:56:08;;;;;;;3.47;0.30;;;;;;;17.09;58.11;99819.06;10338883;28;20114;-79
2023/10/22 16:01:14;;;;;;;1.00;0.30;;;;;;;16.97;58.53;99828.00;10338987;28;20042;-77
2023/10/22 16:06:16;;;;;;;5.70;0.40;;;;;;;16.93;58.48;99828.69;10321422;28;20054;-81
2023/10/22 16:11:18;;;;;;;1.23;0.30;;;;;;;16.87;58.63;99830.44;10305073;28;20050;-88
2023/10/22 16:16:21;;;;;;;1.65;0.63;;;;;;;16.84;58.88;99834.44;10319934;28;20490;-86
2023/10/22 16:21:22;;;;;;;2.85;0.55;;;;;;;16.85;58.62;99838.00;10306896;28;20050;-87
2023/10/22 16:26:24;;;;;;;3.92;0.40;;;;;;;16.69;59.17;99854.88;10310570;28;20047;-87
2023/10/22 16:31:27;;;;;;;2.13;0.30;;;;;;;16.66;59.30;99851.53;10309714;28;20045;-86
2023/10/22 16:36:28;;;;;;;2.08;0.20;;;;;;;16.62;59.42;99860.38;10270880;23;20042;-62
2023/10/22 16:41:30;;;;;;;2.58;0.20;;;;;;;16.53;59.44;99859.88;10310501;28;20400;-62
2023/10/22 16:46:31;;;;;;;3.88;0.55;;;;;;;16.61;59.34;99864.97;10319826;28;20410;-62
2023/10/22 16:51:33;;;;;;;1.02;0.20;;;;;;;16.57;59.70;99869.22;10321404;28;20489;-62
2023/10/22 16:56:35;;;;;;;2.00;0.30;;;;;;;16.55;59.62;99884.06;10321517;28;20042;-63
2023/10/22 17:01:36;;;;;;;3.67;0.55;;;;;;;16.52;59.63;99887.22;10329068;28;20038;-62
2023/10/22 17:06:38;;;;;;;3.65;0.30;;;;;;;16.42;59.98;99901.31;10295399;28;20042;-62
2023/10/22 17:11:40;;;;;;;1.60;0.30;;;;;;;16.40;60.45;99889.88;10329739;28;20070;-63
2023/10/22 17:16:41;;;;;;;5.22;0.40;;;;;;;16.38;60.35;99903.63;10333070;28;20042;-63
2023/10/22 17:21:43;;;;;;;2.08;0.30;;;;;;;16.43;60.29;99903.00;10333746;28;20038;-62
2023/10/22 17:26:44;;;;;;;4.93;0.40;;;;;;;16.38;60.51;99913.66;10335125;28;20050;-61
2023/10/22 17:31:46;;;;;;;1.27;0.30;;;;;;;16.35;60.88;99925.81;10334998;28;20038;-62
2023/10/22 17:36:48;;;;;;;3.67;0.73;;;;;;;16.30;61.01;99922.94;10348413;28;20054;-63
2023/10/22 17:41:49;;;;;;;2.92;0.80;;;;;;;16.29;60.85;99932.13;10328388;28;20065;-62
2023/10/22 17:46:51;;;;;;;2.90;0.60;;;;;;;16.38;60.68;99941.63;10332141;28;20593;-61
2023/10/22 17:51:52;;;;;;;3.33;0.40;;;;;;;16.28;61.01;99945.91;10329244;28;20038;-62
2023/10/22 17:56:54;;;;;;;6.03;0.60;;;;;;;16.35;61.13;99961.06;10347861;28;20087;-61
2023/10/22 18:01:57;;;;;;;3.08;0.60;;;;;;;16.28;61.43;99965.72;10325960;28;20742;-62
2023/10/22 18:06:58;;;;;;;1.98;0.30;;;;;;;16.28;61.36;99973.03;10325341;28;20038;-63
2023/10/22 18:12:00;;;;;;;5.00;0.30;;;;;;;16.25;61.83;99971.56;10310571;28;20613;-62
2023/10/22 18:17:01;;;;;;;3.33;0.40;;;;;;;16.16;61.55;99972.94;10343229;28;20053;-63
2023/10/22 18:22:03;;;;;;;2.70;0.30;;;;;;;16.23;61.56;99984.53;10318434;28;20049;-62
2023/10/22 18:27:04;;;;;;;2.63;0.47;;;;;;;16.22;61.74;99978.28;10318055;28;20053;-63
2023/10/22 18:32:06;;;;;;;2.35;0.50;;;;;;;16.26;61.72;99990.34;10332617;28;20105;-64
2023/10/22 18:37:09;;;;;;;3.67;0.70;;;;;;;16.23;61.77;99985.38;10301996;28;20265;-62
2023/10/22 18:42:13;;;;;;;6.20;0.70;;;;;;;16.31;61.72;99989.69;10299928;28;20050;-63
2023/10/22 18:47:16;;;;;;;2.42;0.57;;;;;;;16.29;61.46;99997.22;10277907;28;20405;-62
2023/10/22 18:52:17;;;;;;;5.85;0.73;;;;;;;16.27;61.48;99996.59;10295526;28;20048;-63
2023/10/22 18:57:19;;;;;;;3.85;0.50;;;;;;;16.22;61.88;99994.56;10314846;28;20046;-63
2023/10/22 19:02:21;;;;;;;5.40;0.82;;;;;;;16.19;62.17;100005.88;10319816;28;20058;-63
2023/10/22 19:07:23;;;;;;;2.90;0.22;;;;;;;16.11;62.31;100003.41;10317568;28;20046;-62
2023/10/22 19:12:25;;;;;;;2.83;0.50;;;;;;;16.03;62.23;100007.25;10324598;28;20149;-62
2023/10/22 19:17:27;;;;;;;1.50;0.90;;;;;;;16.03;62.26;100014.53;10276976;28;20047;-61
2023/10/22 19:22:28;;;;;;;5.20;0.38;;;;;;;16.02;62.66;100015.59;10274861;28;20058;-62
2023/10/22 19:27:32;;;;;;;2.00;0.50;;;;;;;15.97;62.19;100021.66;10268841;28;20105;-61
2023/10/22 19:32:38;;;;;;;3.80;0.63;;;;;;;15.90;62.49;100023.59;10282356;28;20046;-63
2023/10/22 19:37:41;;;;;;;3.58;0.75;;;;;;;15.76;62.76;100028.28;10273614;28;20051;-62
2023/10/22 19:42:42;;;;;;;4.20;0.63;;;;;;;15.66;63.10;100034.16;10297102;28;20039;-61
2023/10/22 19:47:44;;;;;;;6.35;0.50;;;;;;;15.58;63.22;100039.81;10278733;28;20129;-62
2023/10/22 19:52:46;;;;;;;5.35;0.60;;;;;;;15.46;63.54;100042.38;10293639;28;20101;-61
2023/10/22 19:57:48;;;;;;;4.60;0.52;;;;;;;15.44;63.40;100039.06;10316996;28;20042;-63
2023/10/22 20:02:51;;;;;;;3.97;0.52;;;;;;;15.44;63.32;100044.47;10296541;28;20074;-62
2023/10/22 20:07:53;;;;;;;4.00;0.55;;;;;;;15.39;63.93;100043.44;10313056;28;20053;-62
2023/10/22 20:12:55;;;;;;;4.78;0.50;;;;;;;15.34;63.68;100052.19;10314841;28;20121;-62
2023/10/22 20:17:57;;;;;;;1.70;0.50;;;;;;;15.29;63.95;100045.78;10325066;28;20093;-61
2023/10/22 20:22:59;;;;;;;4.53;0.77;;;;;;;15.25;64.12;100048.09;10322914;28;20105;-64
2023/10/22 20:28:03;;;;;;;3.90;0.52;;;;;;;15.24;64.23;100055.41;10324692;28;20075;-63
2023/10/22 20:33:08;;;;;;;1.75;0.50;;;;;;;15.18;64.40;100063.53;10325147;28;20149;-62
2023/10/22 20:38:09;;;;;;;8.13;0.68;;;;;;;15.11;64.28;100068.97;10325222;28;20517;-63
2023/10/22 20:43:11;;;;;;;4.38;0.57;;;;;;;15.04;64.74;100073.56;10338496;28;20124;-63
2023/10/22 20:48:13;;;;;;;4.50;0.88;;;;;;;14.97;64.88;100072.72;10325008;28;20616;-63
2023/10/22 20:53:15;;;;;;;4.60;0.60;;;;;;;14.91;65.03;100068.16;10283406;28;20046;-63
2023/10/22 20:58:17;;;;;;;2.72;0.80;;;;;;;14.86;64.96;100066.09;10271705;28;20070;-62
2023/10/22 21:03:18;;;;;;;5.97;0.75;;;;;;;14.74;65.48;100067.78;10321205;28;20043;-62
2023/10/22 21:08:20;;;;;;;4.72;0.50;;;;;;;14.69;65.40;100071.09;10319114;28;20042;-62
2023/10/22 21:13:22;;;;;;;1.80;0.57;;;;;;;14.62;65.51;100070.31;10322333;28;20646;-62
2023/10/22 21:18:23;;;;;;;3.58;0.90;;;;;;;14.52;65.47;100069.88;10323007;28;20034;-62
2023/10/22 21:23:25;;;;;;;5.35;0.70;;;;;;;14.39;65.63;100071.50;10294873;28;20050;-62
2023/10/22 21:28:27;;;;;;;4.70;1.50;;;;;;;14.28;65.68;100080.25;10306292;28;20052;-63
2023/10/22 21:33:28;;;;;;;3.25;0.93;;;;;;;14.19;66.13;100071.50;10338198;28;20061;-62
2023/10/22 21:38:30;;;;;;;4.68;0.88;;;;;;;14.12;66.13;100077.94;10320405;28;20061;-63
2023/10/22 21:43:31;;;;;;;5.78;1.60;;;;;;;14.04;66.34;100079.81;10332996;28;20051;-63
2023/10/22 21:48:33;;;;;;;5.68;1.13;;;;;;;13.95;66.46;100070.22;10319784;28;20074;-62
2023/10/22 21:53:35;;;;;;;9.23;2.22;;;;;;;13.87;66.41;100065.03;10324559;28;20085;-62
2023/10/22 21:58:38;;;;;;;6.20;2.38;;;;;;;13.76;66.44;100073.72;10323559;28;20133;-62
2023/10/22 22:03:40;;;;;;;7.53;2.50;;;;;;;13.65;66.89;100067.03;10324903;28;20062;-62
2023/10/22 22:08:41;;;;;;;6.47;3.20;;;;;;;13.53;67.10;100068.69;10298486;28;20082;-62
2023/10/22 22:13:43;;;;;;;6.25;2.85;;;;;;;13.45;66.97;100077.78;10321532;28;20132;-62
2023/10/22 22:18:44;;;;;;;6.72;2.30;;;;;;;13.38;67.04;100077.72;10324087;28;20057;-62
2023/10/22 22:23:46;;;;;;;4.47;2.78;;;;;;;13.28;67.02;100077.25;10320396;28;20050;-62
2023/10/22 22:28:47;;;;;;;4.20;1.92;;;;;;;13.16;67.29;100070.75;10320293;28;20519;-63
2023/10/22 22:33:49;;;;;;;4.43;2.40;;;;;;;13.05;67.38;100062.19;10316814;28;20046;-61
2023/10/22 22:38:50;;;;;;;6.65;1.60;;;;;;;12.97;67.44;100078.53;10321886;28;20070;-61
2023/10/22 22:43:52;;;;;;;6.90;1.70;;;;;;;12.87;67.72;100078.91;10318061;28;20054;-61
2023/10/22 22:48:57;;;;;;;5.28;1.90;;;;;;;12.77;67.83;100082.97;10331679;28;20405;-60
2023/10/22 22:53:58;;;;;;;5.32;1.88;;;;;;;12.69;67.65;100081.25;10313126;28;20047;-61
2023/10/22 22:59:00;;;;;;;4.78;1.67;;;;;;;12.45;68.29;100094.13;10318040;28;20046;-62
2023/10/22 23:04:01;;;;;;;6.82;1.80;;;;;;;12.42;68.34;100091.84;10317738;28;20042;-61
2023/10/22 23:09:03;;;;;;;6.03;2.08;;;;;;;12.37;67.86;100096.97;10319803;28;20090;-61
2023/10/22 23:14:04;;;;;;;5.82;2.05;;;;;;;12.28;68.23;100098.13;10320080;28;20046;-61
2023/10/22 23:19:06;;;;;;;7.07;2.50;;;;;;;12.20;68.48;100104.47;10320573;28;20066;-61
2023/10/22 23:24:07;;;;;;;4.00;1.58;;;;;;;12.13;68.54;100100.06;10318143;28;20030;-62